Time;durP1;ratioP1;P1;durP2;ratioP2;P2;SDS_P1;SDS_P2;PMS_P1;PMS_P2;Temp;Humidity;BMP_temperature;BMP_pressure;BME280_temperature;BME280_humidity;BME280_pressure;Samples;Min_cycle;Max_cycle;Signal;HPM_P1;HPM_P2
2021/05/28 00:00:58;;;;;;;11.70;10.33;;;;;21.20;101124.00;;;;2047008;28;20653;-51
2021/05/28 00:01:59;;;;;;;13.23;10.80;;;;;21.20;101123.00;;;;2047455;28;20223;-52
2021/05/28 00:02:59;;;;;;;11.90;10.50;;;;;21.10;101127.00;;;;2047446;29;20224;-52
2021/05/28 00:03:59;;;;;;;12.30;9.30;;;;;21.10;101125.00;;;;2047410;28;20275;-51
2021/05/28 00:05:00;;;;;;;11.33;9.67;;;;;21.10;101120.00;;;;2047365;28;20220;-51
2021/05/28 00:06:00;;;;;;;11.30;9.30;;;;;21.10;101129.00;;;;2047407;28;20212;-54
2021/05/28 00:07:00;;;;;;;11.33;9.80;;;;;21.10;101123.00;;;;2047449;28;20235;-51
2021/05/28 00:08:01;;;;;;;12.00;9.73;;;;;21.20;101121.00;;;;2047403;28;20232;-52
2021/05/28 00:09:02;;;;;;;12.57;9.43;;;;;21.10;101121.00;;;;2047373;28;20981;-51
2021/05/28 00:10:03;;;;;;;11.97;9.90;;;;;21.10;101121.00;;;;2047409;28;20220;-50
2021/05/28 00:11:04;;;;;;;13.02;9.27;;;;;21.10;101126.00;;;;2046489;28;20461;-54
2021/05/28 00:12:04;;;;;;;9.83;8.20;;;;;21.10;101128.00;;;;2050875;28;20239;-51
2021/05/28 00:13:05;;;;;;;10.40;9.30;;;;;21.10;101130.00;;;;2038890;29;20221;-54
2021/05/28 00:14:05;;;;;;;10.47;9.07;;;;;21.10;101123.00;;;;2038914;29;20221;-52
2021/05/28 00:15:07;;;;;;;11.00;9.13;;;;;21.10;101129.00;;;;2047343;28;20232;-53
2021/05/28 00:16:07;;;;;;;9.85;8.85;;;;;21.10;101132.00;;;;2047482;28;20221;-51
2021/05/28 00:17:08;;;;;;;12.60;9.43;;;;;21.10;101129.00;;;;2047445;28;20216;-51
2021/05/28 00:18:08;;;;;;;10.33;8.80;;;;;21.10;101130.00;;;;2038758;29;20289;-54
2021/05/28 00:19:09;;;;;;;10.20;9.10;;;;;21.10;101133.00;;;;2039517;29;20664;-53
2021/05/28 00:20:11;;;;;;;10.70;8.93;;;;;21.10;101132.00;;;;2053972;28;20267;-51
2021/05/28 00:21:11;;;;;;;12.98;9.15;;;;;21.10;101134.00;;;;2046606;28;20232;-51
2021/05/28 00:22:11;;;;;;;10.47;8.07;;;;;21.10;101131.00;;;;2047306;28;20220;-50
2021/05/28 00:23:12;;;;;;;12.20;9.03;;;;;21.10;101131.00;;;;2047351;28;20220;-51
2021/05/28 00:24:12;;;;;;;10.03;7.63;;;;;21.10;101135.00;;;;2046991;28;20236;-51
2021/05/28 00:25:13;;;;;;;9.93;8.20;;;;;21.10;101134.00;;;;2046466;28;20224;-54
2021/05/28 00:26:13;;;;;;;9.70;7.93;;;;;21.10;101123.00;;;;2046258;29;20220;-55
2021/05/28 00:27:13;;;;;;;8.80;7.90;;;;;21.10;101131.00;;;;2051888;28;20733;-54
2021/05/28 00:28:14;;;;;;;9.50;7.60;;;;;21.10;101136.00;;;;2055232;28;20654;-51
2021/05/28 00:29:14;;;;;;;8.60;7.63;;;;;21.00;101134.00;;;;2055208;28;20219;-51
2021/05/28 00:30:15;;;;;;;9.90;7.73;;;;;21.10;101137.00;;;;2050710;28;20221;-51
2021/05/28 00:31:16;;;;;;;9.30;8.30;;;;;21.00;101131.00;;;;2046600;28;20228;-51
2021/05/28 00:32:17;;;;;;;10.15;7.97;;;;;21.00;101142.00;;;;2047309;28;20231;-52
2021/05/28 00:33:17;;;;;;;9.00;8.10;;;;;21.10;101144.00;;;;2047374;28;20317;-53
2021/05/28 00:34:17;;;;;;;10.27;7.90;;;;;21.00;101138.00;;;;2047128;28;20217;-51
2021/05/28 00:35:18;;;;;;;8.87;7.97;;;;;21.00;101136.00;;;;2049844;28;20323;-51
2021/05/28 00:36:18;;;;;;;8.20;7.40;;;;;21.00;101141.00;;;;2055133;28;20243;-51
2021/05/28 00:37:19;;;;;;;8.43;7.20;;;;;21.00;101139.00;;;;2048091;28;20598;-51
2021/05/28 00:38:19;;;;;;;8.40;7.40;;;;;21.00;101142.00;;;;2050969;28;20669;-55
2021/05/28 00:39:19;;;;;;;8.77;6.57;;;;;21.00;101139.00;;;;2055027;28;20480;-51
2021/05/28 00:40:20;;;;;;;8.00;7.10;;;;;21.00;101143.00;;;;2054768;28;20211;-55
2021/05/28 00:41:20;;;;;;;8.40;6.90;;;;;21.00;101140.00;;;;2054517;28;20221;-54
2021/05/28 00:42:20;;;;;;;7.60;6.23;;;;;21.00;101136.00;;;;2050191;28;20222;-53
2021/05/28 00:43:21;;;;;;;8.80;6.97;;;;;21.00;101140.00;;;;2052265;28;20252;-52
2021/05/28 00:44:22;;;;;;;7.90;7.10;;;;;21.00;101138.00;;;;2053197;28;20302;-54
2021/05/28 00:45:23;;;;;;;7.47;6.68;;;;;21.00;101135.00;;;;2050928;28;20278;-51
2021/05/28 00:46:26;;;;;;;7.67;6.93;;;;;21.00;101135.00;;;;2046846;28;20220;-54
2021/05/28 00:47:26;;;;;;;7.90;6.75;;;;;21.00;101138.00;;;;2047156;28;20290;-51
2021/05/28 00:48:26;;;;;;;8.53;6.60;;;;;21.00;101135.00;;;;2047260;28;20256;-51
2021/05/28 00:49:27;;;;;;;6.90;6.17;;;;;21.00;101141.00;;;;2038875;29;20234;-51
2021/05/28 00:50:29;;;;;;;10.07;7.00;;;;;21.00;101135.00;;;;2046576;29;20285;-51
2021/05/28 00:51:29;;;;;;;8.15;6.63;;;;;21.00;101142.00;;;;2047615;28;20216;-53
2021/05/28 00:52:30;;;;;;;7.97;6.50;;;;;21.00;101140.00;;;;2055123;28;20326;-53
2021/05/28 00:53:31;;;;;;;8.03;6.30;;;;;21.00;101130.00;;;;2046579;29;20224;-51
2021/05/28 00:54:31;;;;;;;9.07;6.40;;;;;21.00;101139.00;;;;2038514;29;20707;-51
2021/05/28 00:55:32;;;;;;;6.83;6.10;;;;;21.00;101141.00;;;;2039672;29;20261;-53
2021/05/28 00:56:32;;;;;;;6.83;6.13;;;;;21.00;101141.00;;;;2038410;29;20206;-52
2021/05/28 00:57:32;;;;;;;7.07;6.23;;;;;21.00;101132.00;;;;2042119;29;20312;-51
2021/05/28 00:58:33;;;;;;;6.93;5.73;;;;;21.00;101130.00;;;;2038727;29;20917;-51
2021/05/28 00:59:33;;;;;;;6.77;6.07;;;;;21.00;101147.00;;;;2030516;29;20219;-54
2021/05/28 01:00:34;;;;;;;7.37;6.00;;;;;21.00;101140.00;;;;2035259;29;20216;-52
2021/05/28 01:01:34;;;;;;;6.97;6.13;;;;;21.00;101150.00;;;;2040993;29;21034;-54
2021/05/28 01:02:34;;;;;;;7.37;5.93;;;;;21.00;101137.00;;;;2048357;28;20563;-52
2021/05/28 01:03:35;;;;;;;6.13;5.50;;;;;20.90;101142.00;;;;2054906;28;20219;-54
2021/05/28 01:04:35;;;;;;;9.90;6.20;;;;;20.90;101150.00;;;;2054886;28;20219;-52
2021/05/28 01:05:35;;;;;;;6.40;5.70;;;;;20.90;101147.00;;;;2052721;28;20577;-51
2021/05/28 01:06:36;;;;;;;7.23;5.90;;;;;20.90;101151.00;;;;2046946;28;20379;-51
2021/05/28 01:07:36;;;;;;;7.50;5.60;;;;;21.00;101155.00;;;;2046717;28;20217;-52
2021/05/28 01:08:37;;;;;;;5.50;4.90;;;;;21.00;101147.00;;;;2054052;28;20356;-52
2021/05/28 01:09:37;;;;;;;6.43;5.77;;;;;21.00;101155.00;;;;2054742;28;20271;-51
2021/05/28 01:10:37;;;;;;;6.20;5.60;;;;;21.00;101149.00;;;;2046519;28;20974;-51
2021/05/28 01:11:38;;;;;;;7.63;5.70;;;;;21.00;101149.00;;;;2046348;28;20213;-50
2021/05/28 01:12:39;;;;;;;7.23;5.70;;;;;20.90;101162.00;;;;2046959;28;20244;-53
2021/05/28 01:13:39;;;;;;;6.30;5.60;;;;;20.90;101161.00;;;;2046721;28;20236;-51
2021/05/28 01:14:40;;;;;;;7.77;5.00;;;;;20.90;101167.00;;;;2045901;28;20220;-53
2021/05/28 01:15:40;;;;;;;7.57;5.03;;;;;20.90;101166.00;;;;2052298;28;20209;-51
2021/05/28 01:16:40;;;;;;;6.00;5.07;;;;;20.90;101160.00;;;;2055037;28;20216;-53
2021/05/28 01:17:41;;;;;;;6.87;5.70;;;;;20.90;101162.00;;;;2054908;28;20299;-52
2021/05/28 01:18:41;;;;;;;6.20;5.10;;;;;20.90;101171.00;;;;2054851;28;20299;-51
2021/05/28 01:19:42;;;;;;;6.73;5.80;;;;;20.90;101165.00;;;;2054697;28;20208;-52
2021/05/28 01:20:42;;;;;;;6.03;5.43;;;;;20.90;101163.00;;;;2047066;28;20213;-51
2021/05/28 01:21:43;;;;;;;6.10;5.50;;;;;20.90;101169.00;;;;2050100;28;20221;-54
2021/05/28 01:22:43;;;;;;;7.33;5.67;;;;;20.90;101164.00;;;;2054886;28;20300;-52
2021/05/28 01:23:43;;;;;;;5.27;4.77;;;;;20.90;101170.00;;;;2053937;28;20300;-53
2021/05/28 01:24:44;;;;;;;5.23;4.73;;;;;20.90;101161.00;;;;2053659;28;20744;-55
2021/05/28 01:25:44;;;;;;;6.23;4.77;;;;;20.90;101170.00;;;;2049958;28;20213;-52
2021/05/28 01:26:44;;;;;;;6.13;5.00;;;;;20.90;101170.00;;;;2049596;28;20232;-54
2021/05/28 01:27:45;;;;;;;7.43;4.90;;;;;20.90;101164.00;;;;2054965;28;20220;-55
2021/05/28 01:28:45;;;;;;;6.07;4.90;;;;;20.90;101164.00;;;;2048267;28;20217;-54
2021/05/28 01:29:46;;;;;;;6.27;5.67;;;;;20.90;101163.00;;;;2046887;28;20303;-51
2021/05/28 01:30:46;;;;;;;5.60;4.50;;;;;20.90;101162.00;;;;2046457;28;20528;-52
2021/05/28 01:31:47;;;;;;;6.40;4.53;;;;;20.90;101163.00;;;;2045850;28;20319;-52
2021/05/28 01:32:47;;;;;;;6.97;5.20;;;;;20.90;101169.00;;;;2051060;28;20324;-53
2021/05/28 01:33:47;;;;;;;5.20;4.80;;;;;20.90;101170.00;;;;2054907;28;20312;-51
2021/05/28 01:34:48;;;;;;;5.50;4.90;;;;;20.90;101170.00;;;;2054689;28;20340;-52
2021/05/28 01:35:48;;;;;;;8.30;4.70;;;;;20.90;101165.00;;;;2054809;28;20227;-51
2021/05/28 01:36:48;;;;;;;5.00;4.20;;;;;20.80;101162.00;;;;2054698;28;20299;-51
2021/05/28 01:37:49;;;;;;;5.60;4.83;;;;;20.90;101174.00;;;;2054648;28;20219;-52
2021/05/28 01:38:49;;;;;;;5.43;4.43;;;;;20.90;101171.00;;;;2054431;28;20212;-55
2021/05/28 01:39:50;;;;;;;6.43;4.73;;;;;20.90;101170.00;;;;2054695;28;20275;-51
2021/05/28 01:40:51;;;;;;;5.15;4.35;;;;;20.90;101165.00;;;;2054659;28;20220;-53
2021/05/28 01:41:51;;;;;;;5.80;4.27;;;;;20.90;101166.00;;;;2053847;28;20349;-54
2021/05/28 01:42:51;;;;;;;4.90;4.40;;;;;20.80;101175.00;;;;2054470;28;20216;-52
2021/05/28 01:43:52;;;;;;;5.70;4.80;;;;;20.90;101172.00;;;;2054177;28;20223;-51
2021/05/28 01:44:53;;;;;;;4.90;4.30;;;;;20.80;101166.00;;;;2046498;28;20212;-50
2021/05/28 01:45:54;;;;;;;4.95;4.35;;;;;20.90;101172.00;;;;2046602;28;20236;-52
2021/05/28 01:46:54;;;;;;;5.47;4.13;;;;;20.80;101166.00;;;;2046001;28;20220;-51
2021/05/28 01:47:54;;;;;;;5.30;4.10;;;;;20.80;101167.00;;;;2046176;28;20217;-51
2021/05/28 01:48:55;;;;;;;5.30;3.90;;;;;20.80;101167.00;;;;2046111;28;20221;-55
2021/05/28 01:49:55;;;;;;;5.70;4.30;;;;;20.80;101169.00;;;;2046109;28;20702;-51
2021/05/28 01:50:56;;;;;;;5.63;4.40;;;;;20.80;101163.00;;;;2053130;28;20223;-54
2021/05/28 01:51:56;;;;;;;5.00;4.40;;;;;20.80;101164.00;;;;2050538;28;20231;-51
2021/05/28 01:52:56;;;;;;;6.83;5.00;;;;;20.80;101167.00;;;;2054323;28;20219;-51
2021/05/28 01:53:57;;;;;;;5.07;4.57;;;;;20.80;101162.00;;;;2054410;28;20303;-51
2021/05/28 01:54:57;;;;;;;5.20;4.47;;;;;20.80;101166.00;;;;2054240;28;20228;-50
2021/05/28 01:55:57;;;;;;;6.57;4.50;;;;;20.80;101184.00;;;;2054762;28;20207;-51
2021/05/28 01:56:58;;;;;;;5.60;4.50;;;;;20.80;101160.00;;;;2051073;28;20690;-53
2021/05/28 01:57:58;;;;;;;5.57;4.50;;;;;20.80;101160.00;;;;2046272;28;20254;-52
2021/05/28 01:58:58;;;;;;;5.70;4.20;;;;;20.80;101162.00;;;;2046425;28;20212;-54
2021/05/28 01:59:59;;;;;;;4.53;4.03;;;;;20.80;101157.00;;;;2036146;29;20277;-51
2021/05/28 02:00:59;;;;;;;5.20;4.70;;;;;20.80;101162.00;;;;2037371;29;20256;-51
2021/05/28 02:01:59;;;;;;;5.17;4.67;;;;;20.80;101159.00;;;;2054041;28;20220;-54
2021/05/28 02:03:00;;;;;;;6.70;5.10;;;;;20.80;101154.00;;;;2053428;28;20219;-53
2021/05/28 02:04:00;;;;;;;5.60;4.43;;;;;20.80;101156.00;;;;2054621;28;20270;-52
2021/05/28 02:05:00;;;;;;;5.37;4.70;;;;;20.80;101157.00;;;;2054490;28;20257;-52
2021/05/28 02:06:01;;;;;;;5.30;4.17;;;;;20.80;101154.00;;;;2054530;28;20247;-52
2021/05/28 02:07:02;;;;;;;4.40;4.00;;;;;20.80;101151.00;;;;2053930;28;20219;-52
2021/05/28 02:08:04;;;;;;;5.10;4.50;;;;;20.80;101152.00;;;;2046066;28;20220;-54
2021/05/28 02:09:04;;;;;;;5.20;4.60;;;;;20.80;101157.00;;;;2046504;28;20453;-55
2021/05/28 02:10:06;;;;;;;5.43;4.20;;;;;20.80;101150.00;;;;2048358;28;20216;-53
2021/05/28 02:11:06;;;;;;;5.25;4.75;;;;;20.80;101150.00;;;;2053717;28;20258;-53
2021/05/28 02:12:07;;;;;;;5.47;4.10;;;;;20.80;101146.00;;;;2054352;28;20312;-52
2021/05/28 02:13:07;;;;;;;6.13;4.47;;;;;20.80;101150.00;;;;2054327;28;20215;-50
2021/05/28 02:14:07;;;;;;;5.57;4.57;;;;;20.80;101150.00;;;;2054666;28;20295;-51
2021/05/28 02:15:08;;;;;;;5.10;4.37;;;;;20.80;101150.00;;;;2054522;28;20295;-52
2021/05/28 02:16:09;;;;;;;4.60;4.10;;;;;20.80;101156.00;;;;2049990;28;20925;-51
2021/05/28 02:17:09;;;;;;;5.67;4.30;;;;;20.80;101157.00;;;;2046638;28;20865;-51
2021/05/28 02:18:10;;;;;;;6.73;4.57;;;;;20.80;101152.00;;;;2051674;28;20862;-50
2021/05/28 02:19:10;;;;;;;5.73;4.50;;;;;20.80;101155.00;;;;2054584;28;20570;-51
2021/05/28 02:20:11;;;;;;;5.20;4.40;;;;;20.80;101160.00;;;;2048980;28;20254;-54
2021/05/28 02:21:11;;;;;;;6.38;4.30;;;;;20.80;101158.00;;;;2051760;28;20259;-51
2021/05/28 02:22:12;;;;;;;6.50;4.57;;;;;20.80;101163.00;;;;2045702;28;20238;-51
2021/05/28 02:23:12;;;;;;;5.90;4.73;;;;;20.70;101158.00;;;;2045892;29;20213;-51
2021/05/28 02:24:14;;;;;;;5.67;4.63;;;;;20.70;101159.00;;;;2054506;28;20324;-53
2021/05/28 02:25:15;;;;;;;4.90;4.40;;;;;20.80;101162.00;;;;2050064;28;20222;-53
2021/05/28 02:26:15;;;;;;;4.37;3.97;;;;;20.80;101153.00;;;;2051513;28;20220;-51
2021/05/28 02:27:15;;;;;;;5.40;4.50;;;;;20.80;101153.00;;;;2049517;28;20209;-50
2021/05/28 02:28:16;;;;;;;4.67;4.27;;;;;20.70;101151.00;;;;2046067;28;20691;-51
2021/05/28 02:29:16;;;;;;;4.63;4.13;;;;;20.80;101158.00;;;;2051159;28;20291;-51
2021/05/28 02:30:17;;;;;;;4.90;4.40;;;;;20.80;101151.00;;;;2054423;28;20251;-53
2021/05/28 02:31:17;;;;;;;5.60;4.40;;;;;20.70;101159.00;;;;2053663;28;20316;-51
2021/05/28 02:32:18;;;;;;;5.17;3.77;;;;;20.70;101157.00;;;;2054265;28;20326;-50
2021/05/28 02:33:18;;;;;;;6.07;3.90;;;;;20.70;101162.00;;;;2054392;28;20219;-50
2021/05/28 02:34:18;;;;;;;4.40;3.87;;;;;20.80;101161.00;;;;2054474;28;20752;-51
2021/05/28 02:35:18;;;;;;;5.37;4.40;;;;;20.70;101158.00;;;;2054490;28;20680;-53
2021/05/28 02:36:19;;;;;;;4.63;4.23;;;;;20.70;101163.00;;;;2050441;28;20678;-54
2021/05/28 02:37:19;;;;;;;6.07;4.50;;;;;20.70;101157.00;;;;2050136;28;20208;-50
2021/05/28 02:38:20;;;;;;;4.73;4.10;;;;;20.70;101165.00;;;;2046225;28;20231;-51
2021/05/28 02:39:20;;;;;;;4.70;4.00;;;;;20.70;101164.00;;;;2046219;29;20218;-51
2021/05/28 02:40:21;;;;;;;4.87;4.00;;;;;20.70;101164.00;;;;2046245;28;20235;-51
2021/05/28 02:41:21;;;;;;;4.00;3.67;;;;;20.70;101164.00;;;;2037171;29;20217;-51
2021/05/28 02:42:21;;;;;;;4.80;3.83;;;;;20.70;101166.00;;;;2038090;29;20903;-51
2021/05/28 02:43:22;;;;;;;5.20;4.13;;;;;20.70;101164.00;;;;2045831;28;20216;-51
2021/05/28 02:44:23;;;;;;;5.50;4.07;;;;;20.70;101162.00;;;;2046387;28;20225;-50
2021/05/28 02:45:23;;;;;;;6.00;4.23;;;;;20.70;101160.00;;;;2049675;28;20467;-55
2021/05/28 02:46:23;;;;;;;4.20;3.80;;;;;20.70;101164.00;;;;2050910;28;20240;-55
2021/05/28 02:47:24;;;;;;;4.03;3.60;;;;;20.70;101176.00;;;;2046228;28;20213;-55
2021/05/28 02:48:24;;;;;;;4.37;3.97;;;;;20.70;101165.00;;;;2046374;28;20220;-53
2021/05/28 02:49:24;;;;;;;4.17;3.77;;;;;20.70;101166.00;;;;2046175;28;20216;-53
2021/05/28 02:50:25;;;;;;;4.33;3.93;;;;;20.70;101174.00;;;;2046299;28;20299;-53
2021/05/28 02:51:26;;;;;;;5.57;4.47;;;;;20.70;101167.00;;;;2045530;28;20747;-52
2021/05/28 02:52:27;;;;;;;4.50;4.07;;;;;20.70;101173.00;;;;2048007;28;20231;-50
2021/05/28 02:53:33;;;;;;;4.10;3.70;;;;;20.70;101171.00;;;;2054269;28;20220;-50
2021/05/28 02:54:34;;;;;;;4.93;3.70;;;;;20.70;101172.00;;;;2054302;28;20671;-53
2021/05/28 02:55:34;;;;;;;3.67;3.03;;;;;20.70;101177.00;;;;2049902;28;20295;-51
2021/05/28 02:56:34;;;;;;;4.63;3.80;;;;;20.70;101165.00;;;;2049590;28;20212;-52
2021/05/28 02:57:36;;;;;;;4.10;3.70;;;;;20.70;101185.00;;;;2049387;28;20300;-51
2021/05/28 02:58:37;;;;;;;4.80;3.63;;;;;20.60;101178.00;;;;2047592;28;20221;-50
2021/05/28 02:59:38;;;;;;;4.40;3.73;;;;;20.70;101177.00;;;;2052518;28;20216;-54
2021/05/28 03:00:39;;;;;;;3.83;3.47;;;;;20.70;101173.00;;;;2046350;28;20220;-52
2021/05/28 03:01:39;;;;;;;4.10;3.23;;;;;20.70;101178.00;;;;2045768;28;20448;-50
2021/05/28 03:02:39;;;;;;;4.67;3.53;;;;;20.70;101186.00;;;;2046430;28;20236;-53
2021/05/28 03:03:40;;;;;;;4.73;4.23;;;;;20.60;101175.00;;;;2046218;28;20216;-51
2021/05/28 03:04:40;;;;;;;7.03;3.43;;;;;20.70;101183.00;;;;2045989;28;20682;-54
2021/05/28 03:05:40;;;;;;;4.00;3.60;;;;;20.70;101187.00;;;;2046006;28;20221;-52
2021/05/28 03:06:41;;;;;;;3.47;3.17;;;;;20.70;101187.00;;;;2046454;28;20879;-51
2021/05/28 03:07:41;;;;;;;3.70;3.20;;;;;20.70;101199.00;;;;2050849;28;20220;-51
2021/05/28 03:08:42;;;;;;;6.37;3.70;;;;;20.60;101198.00;;;;2049248;28;20224;-55
2021/05/28 03:09:42;;;;;;;4.13;3.67;;;;;20.60;101195.00;;;;2048403;28;20324;-52
2021/05/28 03:10:42;;;;;;;4.57;3.40;;;;;20.60;101193.00;;;;2055727;28;20216;-52
2021/05/28 03:11:43;;;;;;;5.00;3.93;;;;;20.60;101202.00;;;;2055147;28;20700;-51
2021/05/28 03:12:43;;;;;;;4.67;3.43;;;;;20.70;101195.00;;;;2055946;28;20303;-51
2021/05/28 03:13:44;;;;;;;3.83;3.40;;;;;20.60;101187.00;;;;2055744;28;20228;-55
2021/05/28 03:14:44;;;;;;;4.23;3.83;;;;;20.70;101188.00;;;;2052028;28;20335;-55
2021/05/28 03:15:44;;;;;;;4.40;3.50;;;;;20.60;101188.00;;;;2055602;28;20220;-52
2021/05/28 03:16:45;;;;;;;4.27;3.33;;;;;20.20;101190.00;;;;2055928;28;20216;-52
2021/05/28 03:17:46;;;;;;;3.83;3.43;;;;;20.60;101192.00;;;;2055492;28;20231;-52
2021/05/28 03:18:56;;;;;;;4.30;3.72;;;;;20.60;101183.00;;;;2047525;28;20283;-52
2021/05/28 03:19:56;;;;;;;3.30;2.90;;;;;20.60;101196.00;;;;2049917;28;20224;-53
2021/05/28 03:21:08;;;;;;;4.10;3.63;;;;;20.60;101188.00;;;;2049394;28;20590;-52
2021/05/28 03:23:15;;;;;;;3.95;3.53;;;;;20.60;101190.00;;;;2053442;28;20212;-54
2021/05/28 03:24:15;;;;;;;3.73;3.20;;;;;20.60;101196.00;;;;2047729;28;20224;-53
2021/05/28 03:25:15;;;;;;;3.70;2.97;;;;;20.60;101190.00;;;;2051428;28;20212;-52
2021/05/28 03:26:16;;;;;;;3.50;3.20;;;;;20.60;101192.00;;;;2054156;28;20211;-51
2021/05/28 03:27:16;;;;;;;3.73;3.43;;;;;20.60;101152.00;;;;2044070;29;20213;-52
2021/05/28 03:28:16;;;;;;;4.90;3.10;;;;;20.70;101190.00;;;;2039117;29;20661;-54
2021/05/28 03:29:17;;;;;;;3.90;3.10;;;;;20.60;101198.00;;;;2051435;28;20307;-51
2021/05/28 03:30:18;;;;;;;3.13;2.83;;;;;20.60;101196.00;;;;2047225;28;20220;-51
2021/05/28 03:31:19;;;;;;;3.80;3.33;;;;;20.60;101193.00;;;;2046252;28;20650;-50
2021/05/28 03:32:19;;;;;;;3.20;2.90;;;;;20.60;101197.00;;;;2046980;28;20240;-52
2021/05/28 03:33:19;;;;;;;3.43;3.13;;;;;20.60;101202.00;;;;2047244;28;20221;-51
2021/05/28 03:34:20;;;;;;;4.10;3.07;;;;;20.60;101206.00;;;;2046883;28;20221;-50
2021/05/28 03:35:20;;;;;;;4.60;3.57;;;;;20.60;101204.00;;;;2047376;28;20221;-50
2021/05/28 03:36:20;;;;;;;3.10;2.73;;;;;20.60;101206.00;;;;2046916;28;20744;-51
2021/05/28 03:37:21;;;;;;;3.30;3.00;;;;;20.60;101210.00;;;;2053860;28;20224;-52
2021/05/28 03:38:21;;;;;;;3.73;2.70;;;;;20.60;101208.00;;;;2054989;28;20215;-51
2021/05/28 03:39:21;;;;;;;3.63;3.20;;;;;20.60;101208.00;;;;2054945;28;20243;-50
2021/05/28 03:40:22;;;;;;;4.47;3.63;;;;;20.60;101200.00;;;;2055112;28;20303;-52
2021/05/28 03:41:22;;;;;;;3.60;2.97;;;;;20.60;101197.00;;;;2054407;28;20220;-51
2021/05/28 03:42:23;;;;;;;2.90;2.60;;;;;20.60;101207.00;;;;2054772;28;20768;-50
2021/05/28 03:43:23;;;;;;;3.07;2.67;;;;;20.60;101201.00;;;;2054952;28;20675;-52
2021/05/28 03:44:23;;;;;;;4.30;2.90;;;;;20.60;101204.00;;;;2055325;28;20680;-52
2021/05/28 03:45:24;;;;;;;3.50;3.13;;;;;20.60;101206.00;;;;2055146;28;20219;-54
2021/05/28 03:46:24;;;;;;;5.20;3.20;;;;;20.60;101193.00;;;;2054940;28;20275;-52
2021/05/28 03:47:24;;;;;;;3.53;3.17;;;;;20.60;101206.00;;;;2052652;28;20355;-52
2021/05/28 03:48:25;;;;;;;4.10;2.77;;;;;20.60;101205.00;;;;2046897;28;20220;-54
2021/05/28 03:49:25;;;;;;;2.63;2.40;;;;;20.60;101209.00;;;;2046792;28;20686;-52
2021/05/28 03:50:25;;;;;;;4.20;2.97;;;;;20.60;101206.00;;;;2046849;28;20299;-51
2021/05/28 03:51:26;;;;;;;3.03;2.73;;;;;20.60;101206.00;;;;2046185;28;20272;-51
2021/05/28 03:52:27;;;;;;;3.60;3.30;;;;;20.60;101209.00;;;;2051112;28;20286;-51
2021/05/28 03:53:27;;;;;;;3.60;2.60;;;;;20.60;101216.00;;;;2052208;28;20208;-53
2021/05/28 03:54:27;;;;;;;3.97;3.00;;;;;20.60;101213.00;;;;2050107;28;20215;-52
2021/05/28 03:55:28;;;;;;;3.67;2.60;;;;;20.60;101215.00;;;;2049698;28;20725;-51
2021/05/28 03:56:28;;;;;;;3.30;3.00;;;;;20.60;101219.00;;;;2048191;28;20216;-51
2021/05/28 03:57:28;;;;;;;3.27;2.83;;;;;20.60;101219.00;;;;2048280;28;20208;-51
2021/05/28 03:58:29;;;;;;;3.80;2.70;;;;;20.60;101225.00;;;;2047681;28;20212;-51
2021/05/28 03:59:29;;;;;;;3.20;2.90;;;;;20.60;101231.00;;;;2051563;28;20204;-52
2021/05/28 04:00:29;;;;;;;5.13;2.80;;;;;20.60;101231.00;;;;2050720;28;20302;-52
2021/05/28 04:01:30;;;;;;;3.60;2.80;;;;;20.60;101233.00;;;;2054789;28;20211;-51
2021/05/28 04:02:30;;;;;;;3.10;2.80;;;;;20.60;101235.00;;;;2055419;28;20274;-51
2021/05/28 04:03:30;;;;;;;3.87;3.10;;;;;20.60;101237.00;;;;2047372;28;20216;-51
2021/05/28 04:04:32;;;;;;;2.63;2.43;;;;;20.60;101236.00;;;;2051866;28;20246;-51
2021/05/28 04:05:33;;;;;;;3.92;3.30;;;;;20.60;101249.00;;;;2050338;28;20621;-51
2021/05/28 04:06:34;;;;;;;3.83;3.03;;;;;20.60;101238.00;;;;2052953;28;20247;-53
2021/05/28 04:07:34;;;;;;;3.13;2.87;;;;;20.60;101246.00;;;;2053513;28;21059;-51
2021/05/28 04:08:34;;;;;;;3.30;2.50;;;;;20.60;101234.00;;;;2047277;28;20567;-54
2021/05/28 04:09:35;;;;;;;3.93;2.80;;;;;20.50;101230.00;;;;2047473;28;20865;-54
2021/05/28 04:10:35;;;;;;;2.60;2.40;;;;;20.50;101235.00;;;;2047382;28;20221;-51
2021/05/28 04:11:35;;;;;;;3.37;2.63;;;;;20.60;101235.00;;;;2046625;28;20212;-54
2021/05/28 04:12:36;;;;;;;2.63;2.43;;;;;20.50;101237.00;;;;2047353;28;20697;-52
2021/05/28 04:13:36;;;;;;;2.93;2.60;;;;;20.50;101234.00;;;;2047397;28;20590;-51
2021/05/28 04:14:37;;;;;;;3.10;2.70;;;;;20.60;101233.00;;;;2047433;28;20231;-51
2021/05/28 04:15:37;;;;;;;3.10;2.80;;;;;20.60;101237.00;;;;2047486;28;20240;-50
2021/05/28 04:16:37;;;;;;;3.77;2.80;;;;;20.60;101238.00;;;;2048564;28;20307;-49
2021/05/28 04:17:37;;;;;;;3.37;2.73;;;;;20.60;101238.00;;;;2049918;28;20213;-50
2021/05/28 04:18:38;;;;;;;3.60;2.70;;;;;20.60;101238.00;;;;2047048;28;20219;-52
2021/05/28 04:19:38;;;;;;;2.73;2.50;;;;;20.60;101237.00;;;;2047368;28;20236;-52
2021/05/28 04:20:43;;;;;;;3.30;2.67;;;;;20.50;101238.00;;;;2046681;28;20690;-52
2021/05/28 04:21:43;;;;;;;2.55;2.22;;;;;20.50;101168.00;;;;2046457;28;20223;-52
2021/05/28 04:22:45;;;;;;;3.13;2.83;;;;;20.60;101240.00;;;;2047495;28;20586;-51
2021/05/28 04:23:45;;;;;;;3.92;2.40;;;;;20.50;101235.00;;;;2051627;28;20618;-53
2021/05/28 04:24:45;;;;;;;3.20;2.67;;;;;20.60;101233.00;;;;2054120;28;20215;-52
2021/05/28 04:25:46;;;;;;;2.77;2.57;;;;;20.50;101243.00;;;;2048025;28;20228;-52
2021/05/28 04:26:47;;;;;;;3.40;3.03;;;;;20.50;101240.00;;;;2050528;28;20221;-51
2021/05/28 04:27:47;;;;;;;3.10;2.40;;;;;20.60;101240.00;;;;2049268;28;20460;-52
2021/05/28 04:28:47;;;;;;;4.87;2.83;;;;;20.50;101244.00;;;;2047238;28;20271;-52
2021/05/28 04:29:48;;;;;;;2.57;2.37;;;;;20.60;101243.00;;;;2047210;28;20212;-51
2021/05/28 04:30:48;;;;;;;3.47;2.80;;;;;20.50;101243.00;;;;2047228;28;20217;-51
2021/05/28 04:31:48;;;;;;;3.90;2.87;;;;;20.50;101250.00;;;;2037624;29;20257;-54
2021/05/28 04:32:51;;;;;;;2.60;2.20;;;;;20.50;101250.00;;;;2038797;29;20229;-52
2021/05/28 04:33:51;;;;;;;3.03;2.40;;;;;20.60;101254.00;;;;2051278;28;20270;-52
2021/05/28 04:34:51;;;;;;;2.67;2.37;;;;;20.50;101247.00;;;;2055216;28;20343;-52
2021/05/28 04:35:52;;;;;;;2.70;2.50;;;;;20.50;101259.00;;;;2055009;28;20215;-54
2021/05/28 04:36:52;;;;;;;3.87;2.37;;;;;20.50;101254.00;;;;2055070;28;20216;-51
2021/05/28 04:37:52;;;;;;;3.33;2.43;;;;;20.50;101257.00;;;;2055155;28;20672;-53
2021/05/28 04:38:53;;;;;;;4.40;2.87;;;;;20.50;101261.00;;;;2054958;28;20587;-52
2021/05/28 04:39:53;;;;;;;7.40;2.37;;;;;20.50;101258.00;;;;2046366;28;20323;-52
2021/05/28 04:40:54;;;;;;;3.13;2.60;;;;;20.50;101260.00;;;;2045539;29;20216;-56
2021/05/28 04:41:55;;;;;;;4.10;2.60;;;;;20.60;101254.00;;;;2045499;28;20216;-52
2021/05/28 04:42:55;;;;;;;5.40;2.97;;;;;20.60;101260.00;;;;2046443;29;20224;-52
2021/05/28 04:43:55;;;;;;;3.50;2.70;;;;;20.60;101253.00;;;;2054972;28;20448;-52
2021/05/28 04:44:56;;;;;;;3.93;2.70;;;;;20.60;101259.00;;;;2055051;28;20216;-51
2021/05/28 04:45:56;;;;;;;3.50;2.53;;;;;20.70;101259.00;;;;2055172;28;20601;-51
2021/05/28 04:46:57;;;;;;;3.87;2.60;;;;;20.70;101255.00;;;;2054690;28;20212;-51
2021/05/28 04:47:57;;;;;;;3.93;2.73;;;;;20.60;101251.00;;;;2054825;28;20230;-53
2021/05/28 04:48:57;;;;;;;3.13;2.80;;;;;20.60;101258.00;;;;2055040;28;20216;-51
2021/05/28 04:49:58;;;;;;;4.30;2.93;;;;;20.60;101257.00;;;;2054661;28;20216;-51
2021/05/28 04:50:58;;;;;;;2.73;2.53;;;;;20.60;101287.00;;;;2054629;28;20219;-55
2021/05/28 04:51:59;;;;;;;2.83;2.50;;;;;20.60;101261.00;;;;2054788;28;20471;-54
2021/05/28 04:53:00;;;;;;;3.33;2.40;;;;;20.60;101265.00;;;;2054625;28;20224;-52
2021/05/28 04:54:00;;;;;;;4.30;2.60;;;;;20.60;101262.00;;;;2054244;28;20239;-51
2021/05/28 04:55:01;;;;;;;2.97;2.63;;;;;20.70;101268.00;;;;2053146;28;20311;-55
2021/05/28 04:56:01;;;;;;;3.43;2.70;;;;;20.60;101269.00;;;;2048818;28;20204;-55
2021/05/28 04:57:01;;;;;;;3.03;2.63;;;;;20.60;101274.00;;;;2048484;28;20219;-52
2021/05/28 04:58:02;;;;;;;3.50;2.40;;;;;20.60;101271.00;;;;2046711;28;20240;-51
2021/05/28 04:59:02;;;;;;;3.10;2.80;;;;;20.60;101265.00;;;;2046459;28;20224;-52
2021/05/28 05:00:07;;;;;;;4.57;3.23;;;;;20.60;101270.00;;;;2046404;28;20251;-51
2021/05/28 05:01:07;;;;;;;3.15;2.72;;;;;20.60;101265.00;;;;2045504;28;20276;-51